sensor_id;sensor_type;location;lat;lon;timestamp;pressure;altitude;pressure_sealevel;temperature;humidity
45403;BME280;47427;51.976;5.326;2023-03-19T00:01:33;100991.22;;;10.09;100.00
45403;BME280;47427;51.976;5.326;2023-03-19T00:04:56;100986.78;;;10.07;100.00
45403;BME280;47427;51.976;5.326;2023-03-19T00:08:18;100984.38;;;10.13;100.00
45403;BME280;47427;51.976;5.326;2023-03-19T00:11:41;100986.19;;;10.15;100.00
45403;BME280;47427;51.976;5.326;2023-03-19T00:15:03;100989.47;;;10.08;100.00
45403;BME280;47427;51.976;5.326;2023-03-19T00:18:26;101001.06;;;10.16;100.00
45403;BME280;47427;51.976;5.326;2023-03-19T00:21:48;101009.97;;;10.22;100.00
45403;BME280;47427;51.976;5.326;2023-03-19T00:25:10;100993.06;;;10.12;100.00
45403;BME280;47427;51.976;5.326;2023-03-19T00:28:33;101011.56;;;10.16;100.00
45403;BME280;47427;51.976;5.326;2023-03-19T00:31:57;101012.72;;;10.26;100.00
45403;BME280;47427;51.976;5.326;2023-03-19T00:35:18;101016.16;;;10.24;100.00
45403;BME280;47427;51.976;5.326;2023-03-19T00:38:43;101008.22;;;10.22;100.00
45403;BME280;47427;51.976;5.326;2023-03-19T00:42:05;101001.81;;;10.12;100.00
45403;BME280;47427;51.976;5.326;2023-03-19T00:45:28;100983.59;;;9.88;100.00
45403;BME280;47427;51.976;5.326;2023-03-19T00:48:52;100989.78;;;9.90;100.00
45403;BME280;47427;51.976;5.326;2023-03-19T00:52:15;101015.84;;;9.86;100.00
45403;BME280;47427;51.976;5.326;2023-03-19T00:55:37;101000.69;;;9.77;100.00
45403;BME280;47427;51.976;5.326;2023-03-19T00:58:59;101006.06;;;9.80;100.00
45403;BME280;47427;51.976;5.326;2023-03-19T01:02:21;101022.31;;;9.97;100.00
45403;BME280;47427;51.976;5.326;2023-03-19T01:05:47;101012.66;;;9.96;100.00
45403;BME280;47427;51.976;5.326;2023-03-19T01:09:10;101015.06;;;9.90;100.00
45403;BME280;47427;51.976;5.326;2023-03-19T01:12:33;101006.47;;;9.94;100.00
45403;BME280;47427;51.976;5.326;2023-03-19T01:15:56;101019.88;;;10.03;100.00
45403;BME280;47427;51.976;5.326;2023-03-19T01:19:17;101000.16;;;9.87;100.00
45403;BME280;47427;51.976;5.326;2023-03-19T01:22:41;101001.66;;;9.79;100.00
45403;BME280;47427;51.976;5.326;2023-03-19T01:26:05;101010.31;;;9.76;100.00
45403;BME280;47427;51.976;5.326;2023-03-19T01:29:27;101010.84;;;9.66;100.00
45403;BME280;47427;51.976;5.326;2023-03-19T01:32:51;101008.72;;;9.82;100.00
45403;BME280;47427;51.976;5.326;2023-03-19T01:36:25;101002.69;;;9.84;100.00
45403;BME280;47427;51.976;5.326;2023-03-19T01:39:58;101002.28;;;9.99;100.00
45403;BME280;47427;51.976;5.326;2023-03-19T01:43:28;101011.41;;;10.12;100.00
45403;BME280;47427;51.976;5.326;2023-03-19T01:47:05;101022.13;;;10.19;100.00
45403;BME280;47427;51.976;5.326;2023-03-19T01:50:52;101015.28;;;10.25;100.00
45403;BME280;47427;51.976;5.326;2023-03-19T01:54:23;101024.22;;;10.30;100.00
45403;BME280;47427;51.976;5.326;2023-03-19T01:58:07;101032.38;;;10.39;100.00
45403;BME280;47427;51.976;5.326;2023-03-19T02:02:31;101025.84;;;10.26;100.00
45403;BME280;47427;51.976;5.326;2023-03-19T02:05:54;101023.41;;;10.32;100.00
45403;BME280;47427;51.976;5.326;2023-03-19T02:09:18;101026.03;;;10.32;100.00
45403;BME280;47427;51.976;5.326;2023-03-19T02:12:41;101025.22;;;10.33;100.00
45403;BME280;47427;51.976;5.326;2023-03-19T02:16:05;101016.22;;;10.27;100.00
45403;BME280;47427;51.976;5.326;2023-03-19T02:23:31;101040.50;;;9.92;100.00
45403;BME280;47427;51.976;5.326;2023-03-19T02:26:59;101021.19;;;9.89;100.00
45403;BME280;47427;51.976;5.326;2023-03-19T02:30:31;101004.59;;;9.90;100.00
45403;BME280;47427;51.976;5.326;2023-03-19T02:34:06;101012.25;;;10.11;100.00
45403;BME280;47427;51.976;5.326;2023-03-19T02:37:29;101017.50;;;10.11;100.00
45403;BME280;47427;51.976;5.326;2023-03-19T02:41:11;101019.13;;;10.07;100.00
45403;BME280;47427;51.976;5.326;2023-03-19T02:44:34;101035.31;;;10.23;100.00
45403;BME280;47427;51.976;5.326;2023-03-19T02:47:59;101033.09;;;10.33;100.00
45403;BME280;47427;51.976;5.326;2023-03-19T02:51:22;101025.38;;;10.39;100.00
45403;BME280;47427;51.976;5.326;2023-03-19T02:55:05;101025.31;;;10.36;100.00
45403;BME280;47427;51.976;5.326;2023-03-19T02:58:29;101031.38;;;10.35;100.00
45403;BME280;47427;51.976;5.326;2023-03-19T03:01:51;101032.16;;;10.33;100.00
45403;BME280;47427;51.976;5.326;2023-03-19T03:05:14;101045.34;;;10.34;100.00
45403;BME280;47427;51.976;5.326;2023-03-19T03:08:37;101037.38;;;10.31;100.00
45403;BME280;47427;51.976;5.326;2023-03-19T03:11:58;101019.34;;;10.15;100.00
45403;BME280;47427;51.976;5.326;2023-03-19T03:15:22;101025.53;;;10.15;100.00
45403;BME280;47427;51.976;5.326;2023-03-19T03:18:44;101039.75;;;10.24;100.00
45403;BME280;47427;51.976;5.326;2023-03-19T03:22:07;101041.66;;;10.01;100.00
45403;BME280;47427;51.976;5.326;2023-03-19T03:25:29;101033.06;;;9.77;100.00
45403;BME280;47427;51.976;5.326;2023-03-19T03:28:51;101035.63;;;9.76;100.00
45403;BME280;47427;51.976;5.326;2023-03-19T03:32:14;101027.94;;;9.82;100.00
45403;BME280;47427;51.976;5.326;2023-03-19T03:35:37;101036.09;;;9.64;100.00
45403;BME280;47427;51.976;5.326;2023-03-19T03:39:00;101037.94;;;9.41;100.00
45403;BME280;47427;51.976;5.326;2023-03-19T03:42:23;101048.34;;;9.38;100.00
45403;BME280;47427;51.976;5.326;2023-03-19T03:45:47;101042.66;;;9.26;100.00
45403;BME280;47427;51.976;5.326;2023-03-19T03:49:11;101054.53;;;9.16;100.00
45403;BME280;47427;51.976;5.326;2023-03-19T03:52:34;101050.59;;;9.03;100.00
45403;BME280;47427;51.976;5.326;2023-03-19T03:55:57;101043.22;;;8.92;100.00
45403;BME280;47427;51.976;5.326;2023-03-19T03:59:21;101032.22;;;8.76;100.00
45403;BME280;47427;51.976;5.326;2023-03-19T04:02:45;101041.22;;;8.84;100.00
45403;BME280;47427;51.976;5.326;2023-03-19T04:06:16;101051.69;;;8.84;100.00
45403;BME280;47427;51.976;5.326;2023-03-19T04:09:43;101030.81;;;8.62;100.00
45403;BME280;47427;51.976;5.326;2023-03-19T04:13:04;101038.28;;;8.53;100.00
45403;BME280;47427;51.976;5.326;2023-03-19T04:16:27;101045.03;;;8.46;100.00
45403;BME280;47427;51.976;5.326;2023-03-19T04:19:50;101049.13;;;8.39;100.00
45403;BME280;47427;51.976;5.326;2023-03-19T04:23:12;101048.72;;;8.30;100.00
45403;BME280;47427;51.976;5.326;2023-03-19T04:26:35;101049.97;;;8.17;100.00
45403;BME280;47427;51.976;5.326;2023-03-19T04:30:17;101061.41;;;8.19;100.00
45403;BME280;47427;51.976;5.326;2023-03-19T04:33:40;101064.19;;;8.24;100.00
45403;BME280;47427;51.976;5.326;2023-03-19T04:37:03;101056.25;;;8.21;100.00
45403;BME280;47427;51.976;5.326;2023-03-19T04:40:27;101063.13;;;8.19;100.00
45403;BME280;47427;51.976;5.326;2023-03-19T04:44:10;101065.53;;;8.14;100.00
45403;BME280;47427;51.976;5.326;2023-03-19T04:47:35;101040.72;;;8.03;100.00
45403;BME280;47427;51.976;5.326;2023-03-19T04:50:56;101049.50;;;8.05;100.00
45403;BME280;47427;51.976;5.326;2023-03-19T04:54:20;101034.06;;;7.89;100.00
45403;BME280;47427;51.976;5.326;2023-03-19T04:57:42;101061.13;;;7.91;100.00
45403;BME280;47427;51.976;5.326;2023-03-19T05:01:05;101066.16;;;7.86;100.00
45403;BME280;47427;51.976;5.326;2023-03-19T05:04:47;101070.19;;;7.78;100.00
45403;BME280;47427;51.976;5.326;2023-03-19T05:08:09;101062.94;;;7.71;100.00
45403;BME280;47427;51.976;5.326;2023-03-19T05:11:33;101084.78;;;7.73;100.00
45403;BME280;47427;51.976;5.326;2023-03-19T05:15:01;101081.78;;;7.64;100.00
45403;BME280;47427;51.976;5.326;2023-03-19T05:18:27;101078.09;;;7.58;100.00
45403;BME280;47427;51.976;5.326;2023-03-19T05:21:50;101083.94;;;7.53;100.00
45403;BME280;47427;51.976;5.326;2023-03-19T05:25:17;101098.34;;;7.64;100.00
45403;BME280;47427;51.976;5.326;2023-03-19T05:28:40;101096.56;;;7.63;100.00
45403;BME280;47427;51.976;5.326;2023-03-19T05:32:04;101088.53;;;7.58;100.00
45403;BME280;47427;51.976;5.326;2023-03-19T05:35:28;101101.59;;;7.58;100.00
45403;BME280;47427;51.976;5.326;2023-03-19T05:38:51;101087.25;;;7.49;100.00
45403;BME280;47427;51.976;5.326;2023-03-19T05:42:20;101095.91;;;7.48;100.00
45403;BME280;47427;51.976;5.326;2023-03-19T05:45:50;101094.88;;;7.44;100.00
45403;BME280;47427;51.976;5.326;2023-03-19T05:49:19;101114.53;;;7.76;100.00
45403;BME280;47427;51.976;5.326;2023-03-19T05:52:41;101123.13;;;7.95;100.00
45403;BME280;47427;51.976;5.326;2023-03-19T05:56:05;101134.53;;;7.97;100.00
45403;BME280;47427;51.976;5.326;2023-03-19T05:59:37;101127.03;;;7.84;100.00
45403;BME280;47427;51.976;5.326;2023-03-19T06:03:23;101133.66;;;7.75;100.00
45403;BME280;47427;51.976;5.326;2023-03-19T06:06:48;101130.72;;;7.68;100.00
45403;BME280;47427;51.976;5.326;2023-03-19T06:10:10;101128.03;;;7.66;100.00
45403;BME280;47427;51.976;5.326;2023-03-19T06:13:32;101141.28;;;7.71;100.00
45403;BME280;47427;51.976;5.326;2023-03-19T06:16:55;101148.34;;;7.73;100.00
45403;BME280;47427;51.976;5.326;2023-03-19T06:20:17;101147.59;;;7.76;100.00
45403;BME280;47427;51.976;5.326;2023-03-19T06:23:39;101147.34;;;7.70;100.00
45403;BME280;47427;51.976;5.326;2023-03-19T06:27:02;101168.75;;;7.82;100.00
45403;BME280;47427;51.976;5.326;2023-03-19T06:30:24;101151.28;;;7.81;100.00
45403;BME280;47427;51.976;5.326;2023-03-19T06:33:46;101153.59;;;7.94;100.00
45403;BME280;47427;51.976;5.326;2023-03-19T06:37:13;101159.88;;;7.99;100.00
45403;BME280;47427;51.976;5.326;2023-03-19T06:40:34;101162.81;;;8.28;100.00
45403;BME280;47427;51.976;5.326;2023-03-19T06:43:57;101179.69;;;8.57;100.00
45403;BME280;47427;51.976;5.326;2023-03-19T06:47:20;101178.72;;;8.76;100.00
45403;BME280;47427;51.976;5.326;2023-03-19T06:50:41;101151.22;;;8.65;100.00
45403;BME280;47427;51.976;5.326;2023-03-19T06:54:04;101186.59;;;9.00;100.00
45403;BME280;47427;51.976;5.326;2023-03-19T06:57:26;101175.25;;;8.77;100.00
45403;BME280;47427;51.976;5.326;2023-03-19T07:00:48;101161.22;;;8.75;100.00
45403;BME280;47427;51.976;5.326;2023-03-19T07:04:11;101186.50;;;8.99;100.00
45403;BME280;47427;51.976;5.326;2023-03-19T07:07:33;101184.38;;;9.11;100.00
45403;BME280;47427;51.976;5.326;2023-03-19T07:11:15;101200.50;;;9.22;100.00
45403;BME280;47427;51.976;5.326;2023-03-19T07:14:36;101196.66;;;9.36;100.00
45403;BME280;47427;51.976;5.326;2023-03-19T07:17:58;101197.53;;;9.37;100.00
45403;BME280;47427;51.976;5.326;2023-03-19T07:21:21;101199.66;;;9.47;100.00
45403;BME280;47427;51.976;5.326;2023-03-19T07:24:44;101204.56;;;9.38;100.00
45403;BME280;47427;51.976;5.326;2023-03-19T07:28:06;101211.56;;;9.39;100.00
45403;BME280;47427;51.976;5.326;2023-03-19T07:31:29;101213.16;;;9.58;100.00
45403;BME280;47427;51.976;5.326;2023-03-19T07:34:50;101228.47;;;9.71;100.00
45403;BME280;47427;51.976;5.326;2023-03-19T07:38:13;101226.63;;;9.68;100.00
45403;BME280;47427;51.976;5.326;2023-03-19T07:41:36;101226.81;;;9.73;100.00
45403;BME280;47427;51.976;5.326;2023-03-19T07:44:57;101229.53;;;9.76;100.00
45403;BME280;47427;51.976;5.326;2023-03-19T07:48:20;101242.47;;;9.97;100.00
45403;BME280;47427;51.976;5.326;2023-03-19T07:51:43;101253.47;;;9.87;100.00
45403;BME280;47427;51.976;5.326;2023-03-19T07:55:05;101248.91;;;10.05;100.00
45403;BME280;47427;51.976;5.326;2023-03-19T07:58:28;101248.69;;;10.25;100.00
45403;BME280;47427;51.976;5.326;2023-03-19T08:01:49;101257.19;;;10.43;100.00
45403;BME280;47427;51.976;5.326;2023-03-19T08:05:12;101257.19;;;10.43;100.00
45403;BME280;47427;51.976;5.326;2023-03-19T08:08:35;101263.50;;;10.48;100.00
45403;BME280;47427;51.976;5.326;2023-03-19T08:11:57;101266.31;;;10.54;100.00
45403;BME280;47427;51.976;5.326;2023-03-19T08:15:20;101279.88;;;10.68;100.00
45403;BME280;47427;51.976;5.326;2023-03-19T08:18:43;101271.38;;;10.48;100.00
45403;BME280;47427;51.976;5.326;2023-03-19T08:22:05;101272.06;;;10.70;100.00
45403;BME280;47427;51.976;5.326;2023-03-19T08:25:28;101267.06;;;10.77;100.00
45403;BME280;47427;51.976;5.326;2023-03-19T08:28:52;101277.09;;;10.91;100.00
45403;BME280;47427;51.976;5.326;2023-03-19T08:32:15;101277.31;;;10.97;100.00
45403;BME280;47427;51.976;5.326;2023-03-19T08:35:38;101283.97;;;11.14;100.00
45403;BME280;47427;51.976;5.326;2023-03-19T08:39:00;101271.31;;;11.30;100.00
45403;BME280;47427;51.976;5.326;2023-03-19T08:42:22;101282.88;;;11.36;100.00
45403;BME280;47427;51.976;5.326;2023-03-19T08:45:45;101287.34;;;11.69;100.00
45403;BME280;47427;51.976;5.326;2023-03-19T08:49:07;101289.34;;;11.78;100.00
45403;BME280;47427;51.976;5.326;2023-03-19T08:52:30;101290.69;;;11.33;100.00
45403;BME280;47427;51.976;5.326;2023-03-19T08:56:01;101293.31;;;11.33;100.00
45403;BME280;47427;51.976;5.326;2023-03-19T08:59:26;101300.00;;;11.52;100.00
45403;BME280;47427;51.976;5.326;2023-03-19T09:02:48;101315.75;;;11.22;100.00
45403;BME280;47427;51.976;5.326;2023-03-19T09:06:11;101308.91;;;11.27;100.00
45403;BME280;47427;51.976;5.326;2023-03-19T09:09:36;101320.94;;;11.20;100.00
45403;BME280;47427;51.976;5.326;2023-03-19T09:12:57;101312.66;;;11.08;100.00
45403;BME280;47427;51.976;5.326;2023-03-19T09:16:20;101307.81;;;11.20;100.00
45403;BME280;47427;51.976;5.326;2023-03-19T09:19:42;101303.09;;;11.10;100.00
45403;BME280;47427;51.976;5.326;2023-03-19T09:23:04;101325.44;;;11.24;100.00
45403;BME280;47427;51.976;5.326;2023-03-19T09:27:06;101336.19;;;11.32;100.00
45403;BME280;47427;51.976;5.326;2023-03-19T09:30:28;101329.03;;;11.28;100.00
45403;BME280;47427;51.976;5.326;2023-03-19T09:33:51;101336.59;;;10.90;100.00
45403;BME280;47427;51.976;5.326;2023-03-19T09:37:14;101339.66;;;10.77;100.00
45403;BME280;47427;51.976;5.326;2023-03-19T09:40:41;101348.22;;;10.98;100.00
45403;BME280;47427;51.976;5.326;2023-03-19T09:44:16;101347.50;;;11.02;100.00
45403;BME280;47427;51.976;5.326;2023-03-19T09:47:40;101359.75;;;11.02;100.00
45403;BME280;47427;51.976;5.326;2023-03-19T09:51:07;101352.44;;;10.93;100.00
45403;BME280;47427;51.976;5.326;2023-03-19T09:54:41;101360.53;;;10.99;100.00
45403;BME280;47427;51.976;5.326;2023-03-19T09:58:17;101358.25;;;11.37;100.00
45403;BME280;47427;51.976;5.326;2023-03-19T10:01:52;101365.69;;;11.82;100.00
45403;BME280;47427;51.976;5.326;2023-03-19T10:16:39;101367.22;;;12.68;100.00
45403;BME280;47427;51.976;5.326;2023-03-19T10:20:11;101381.97;;;12.96;100.00
45403;BME280;47427;51.976;5.326;2023-03-19T10:27:15;101381.13;;;12.62;100.00
45403;BME280;47427;51.976;5.326;2023-03-19T10:30:39;101393.28;;;12.57;100.00
45403;BME280;47427;51.976;5.326;2023-03-19T10:34:31;101394.16;;;12.56;100.00
45403;BME280;47427;51.976;5.326;2023-03-19T10:37:53;101379.06;;;12.50;100.00
45403;BME280;47427;51.976;5.326;2023-03-19T10:41:26;101392.19;;;12.49;100.00
45403;BME280;47427;51.976;5.326;2023-03-19T10:44:58;101399.69;;;12.35;100.00
45403;BME280;47427;51.976;5.326;2023-03-19T10:48:25;101400.44;;;11.99;100.00
45403;BME280;47427;51.976;5.326;2023-03-19T10:51:47;101396.25;;;12.06;100.00
45403;BME280;47427;51.976;5.326;2023-03-19T10:55:24;101418.03;;;12.02;100.00
45403;BME280;47427;51.976;5.326;2023-03-19T10:59:05;101417.09;;;12.00;100.00
45403;BME280;47427;51.976;5.326;2023-03-19T11:02:29;101398.81;;;12.03;100.00
45403;BME280;47427;51.976;5.326;2023-03-19T11:09:51;101435.88;;;12.12;100.00
45403;BME280;47427;51.976;5.326;2023-03-19T11:13:26;101427.00;;;12.08;100.00
45403;BME280;47427;51.976;5.326;2023-03-19T11:20:37;101434.25;;;12.17;100.00
45403;BME280;47427;51.976;5.326;2023-03-19T11:24:02;101431.41;;;12.09;100.00
45403;BME280;47427;51.976;5.326;2023-03-19T11:27:31;101436.44;;;12.32;100.00
45403;BME280;47427;51.976;5.326;2023-03-19T11:35:02;101425.53;;;12.18;100.00
45403;BME280;47427;51.976;5.326;2023-03-19T11:42:47;101438.78;;;13.19;100.00
45403;BME280;47427;51.976;5.326;2023-03-19T11:46:36;101428.78;;;13.41;100.00
45403;BME280;47427;51.976;5.326;2023-03-19T11:54:22;101429.16;;;13.96;100.00
45403;BME280;47427;51.976;5.326;2023-03-19T11:58:30;101433.91;;;14.55;100.00
45403;BME280;47427;51.976;5.326;2023-03-19T12:10:24;101441.06;;;16.28;99.94
45403;BME280;47427;51.976;5.326;2023-03-19T12:14:25;101439.94;;;15.49;98.65
45403;BME280;47427;51.976;5.326;2023-03-19T12:25:50;101430.06;;;16.68;94.45
45403;BME280;47427;51.976;5.326;2023-03-19T12:37:11;101444.38;;;16.10;95.81
45403;BME280;47427;51.976;5.326;2023-03-19T12:44:15;101432.78;;;20.80;79.02
45403;BME280;47427;51.976;5.326;2023-03-19T12:47:40;101441.03;;;20.26;74.04
45403;BME280;47427;51.976;5.326;2023-03-19T12:51:09;101435.88;;;18.81;76.14
45403;BME280;47427;51.976;5.326;2023-03-19T12:54:43;101437.59;;;17.16;81.42
45403;BME280;47427;51.976;5.326;2023-03-19T13:02:39;101448.81;;;16.84;89.30
45403;BME280;47427;51.976;5.326;2023-03-19T13:06:30;101455.00;;;16.86;89.97
45403;BME280;47427;51.976;5.326;2023-03-19T13:10:04;101444.91;;;17.43;87.36
45403;BME280;47427;51.976;5.326;2023-03-19T13:17:23;101453.25;;;16.86;88.31
45403;BME280;47427;51.976;5.326;2023-03-19T13:21:23;101439.75;;;16.68;89.83
45403;BME280;47427;51.976;5.326;2023-03-19T13:24:46;101450.63;;;16.86;88.43
45403;BME280;47427;51.976;5.326;2023-03-19T13:28:12;101445.25;;;16.83;89.01
45403;BME280;47427;51.976;5.326;2023-03-19T13:31:40;101445.97;;;16.68;87.57
45403;BME280;47427;51.976;5.326;2023-03-19T13:35:38;101448.16;;;16.29;90.51
45403;BME280;47427;51.976;5.326;2023-03-19T13:39:01;101429.56;;;16.24;90.38
45403;BME280;47427;51.976;5.326;2023-03-19T13:42:43;101462.94;;;16.13;90.33
45403;BME280;47427;51.976;5.326;2023-03-19T13:49:35;101456.38;;;17.37;85.97
45403;BME280;47427;51.976;5.326;2023-03-19T13:53:36;101457.16;;;17.28;86.76
45403;BME280;47427;51.976;5.326;2023-03-19T14:00:58;101454.28;;;18.26;82.02
45403;BME280;47427;51.976;5.326;2023-03-19T14:04:33;101449.19;;;19.43;74.55
45403;BME280;47427;51.976;5.326;2023-03-19T14:07:55;101451.88;;;19.67;73.99
45403;BME280;47427;51.976;5.326;2023-03-19T14:11:27;101445.66;;;19.33;76.43
45403;BME280;47427;51.976;5.326;2023-03-19T14:15:13;101447.41;;;19.26;77.15
45403;BME280;47427;51.976;5.326;2023-03-19T14:18:40;101452.50;;;18.24;77.68
45403;BME280;47427;51.976;5.326;2023-03-19T14:22:39;101442.81;;;18.39;76.95
45403;BME280;47427;51.976;5.326;2023-03-19T14:26:22;101460.44;;;18.22;77.62
45403;BME280;47427;51.976;5.326;2023-03-19T14:29:46;101451.41;;;17.83;78.02
45403;BME280;47427;51.976;5.326;2023-03-19T14:33:45;101460.88;;;17.52;77.95
45403;BME280;47427;51.976;5.326;2023-03-19T14:37:50;101468.75;;;17.40;80.85
45403;BME280;47427;51.976;5.326;2023-03-19T14:41:17;101485.00;;;16.82;79.64
45403;BME280;47427;51.976;5.326;2023-03-19T14:49:51;101483.22;;;16.79;80.54
45403;BME280;47427;51.976;5.326;2023-03-19T14:53:10;101479.09;;;16.33;79.88
45403;BME280;47427;51.976;5.326;2023-03-19T14:56:35;101477.91;;;16.09;81.26
45403;BME280;47427;51.976;5.326;2023-03-19T14:59:57;101464.00;;;17.03;79.54
45403;BME280;47427;51.976;5.326;2023-03-19T15:03:32;101470.97;;;16.89;79.64
45403;BME280;47427;51.976;5.326;2023-03-19T15:06:58;101469.19;;;17.98;76.42
45403;BME280;47427;51.976;5.326;2023-03-19T15:10:28;101455.56;;;17.50;76.33
45403;BME280;47427;51.976;5.326;2023-03-19T15:14:08;101461.28;;;18.12;76.02
45403;BME280;47427;51.976;5.326;2023-03-19T15:17:35;101440.88;;;18.05;73.86
45403;BME280;47427;51.976;5.326;2023-03-19T15:21:02;101448.09;;;17.03;76.16
45403;BME280;47427;51.976;5.326;2023-03-19T15:24:24;101456.19;;;16.38;80.34
45403;BME280;47427;51.976;5.326;2023-03-19T15:28:08;101474.41;;;16.12;82.30
45403;BME280;47427;51.976;5.326;2023-03-19T15:35:07;101470.19;;;15.65;85.45
45403;BME280;47427;51.976;5.326;2023-03-19T15:38:43;101474.69;;;16.35;83.57
45403;BME280;47427;51.976;5.326;2023-03-19T15:42:05;101485.94;;;16.17;84.06
45403;BME280;47427;51.976;5.326;2023-03-19T15:45:29;101489.72;;;15.70;85.49
45403;BME280;47427;51.976;5.326;2023-03-19T15:49:08;101487.47;;;14.93;88.52
45403;BME280;47427;51.976;5.326;2023-03-19T15:52:36;101496.72;;;14.71;89.98
45403;BME280;47427;51.976;5.326;2023-03-19T15:55:59;101503.00;;;14.34;91.69
45403;BME280;47427;51.976;5.326;2023-03-19T15:59:23;101503.66;;;14.25;93.82
45403;BME280;47427;51.976;5.326;2023-03-19T16:02:50;101505.81;;;14.02;95.19
45403;BME280;47427;51.976;5.326;2023-03-19T16:06:30;101507.31;;;13.91;95.87
45403;BME280;47427;51.976;5.326;2023-03-19T16:09:54;101509.97;;;13.91;96.10
45403;BME280;47427;51.976;5.326;2023-03-19T16:13:38;101499.34;;;13.89;96.68
45403;BME280;47427;51.976;5.326;2023-03-19T16:17:32;101520.69;;;14.00;96.91
45403;BME280;47427;51.976;5.326;2023-03-19T16:21:14;101528.34;;;14.27;97.60
45403;BME280;47427;51.976;5.326;2023-03-19T16:24:46;101517.56;;;14.18;99.06
45403;BME280;47427;51.976;5.326;2023-03-19T16:28:20;101524.13;;;14.76;98.14
45403;BME280;47427;51.976;5.326;2023-03-19T16:32:23;101531.44;;;14.47;99.58
45403;BME280;47427;51.976;5.326;2023-03-19T16:35:46;101537.03;;;14.23;100.00
45403;BME280;47427;51.976;5.326;2023-03-19T16:42:52;101566.63;;;13.05;100.00
45403;BME280;47427;51.976;5.326;2023-03-19T16:46:16;101569.50;;;12.52;100.00
45403;BME280;47427;51.976;5.326;2023-03-19T16:49:37;101565.72;;;12.14;100.00
45403;BME280;47427;51.976;5.326;2023-03-19T16:53:03;101564.13;;;11.92;100.00
45403;BME280;47427;51.976;5.326;2023-03-19T16:56:26;101590.94;;;11.82;100.00
45403;BME280;47427;51.976;5.326;2023-03-19T16:59:48;101483.31;;;11.06;100.00
45403;BME280;47427;51.976;5.326;2023-03-19T17:03:16;101602.41;;;11.58;100.00
45403;BME280;47427;51.976;5.326;2023-03-19T17:06:38;101592.09;;;11.64;100.00
45403;BME280;47427;51.976;5.326;2023-03-19T17:09:59;101608.72;;;11.89;100.00
45403;BME280;47427;51.976;5.326;2023-03-19T17:13:26;101604.44;;;11.91;100.00
45403;BME280;47427;51.976;5.326;2023-03-19T17:16:50;101619.69;;;11.77;100.00
45403;BME280;47427;51.976;5.326;2023-03-19T17:20:19;101622.84;;;11.67;100.00
45403;BME280;47427;51.976;5.326;2023-03-19T17:23:47;101633.97;;;11.58;100.00
45403;BME280;47427;51.976;5.326;2023-03-19T17:27:09;101631.34;;;11.58;100.00
45403;BME280;47427;51.976;5.326;2023-03-19T17:30:33;101636.50;;;11.55;100.00
45403;BME280;47427;51.976;5.326;2023-03-19T17:34:26;101627.91;;;11.35;100.00
45403;BME280;47427;51.976;5.326;2023-03-19T17:37:48;101648.16;;;11.39;100.00
45403;BME280;47427;51.976;5.326;2023-03-19T17:41:14;101638.13;;;11.27;100.00
45403;BME280;47427;51.976;5.326;2023-03-19T17:44:38;101650.47;;;11.06;100.00
45403;BME280;47427;51.976;5.326;2023-03-19T17:48:01;101655.81;;;10.85;100.00
45403;BME280;47427;51.976;5.326;2023-03-19T17:51:23;101659.88;;;10.77;100.00
45403;BME280;47427;51.976;5.326;2023-03-19T17:54:45;101663.28;;;10.74;100.00
45403;BME280;47427;51.976;5.326;2023-03-19T17:58:20;101667.19;;;10.61;100.00
45403;BME280;47427;51.976;5.326;2023-03-19T18:01:44;101676.34;;;10.73;100.00
45403;BME280;47427;51.976;5.326;2023-03-19T18:05:20;101673.44;;;10.65;100.00
45403;BME280;47427;51.976;5.326;2023-03-19T18:08:44;101682.97;;;10.85;100.00
45403;BME280;47427;51.976;5.326;2023-03-19T18:12:07;101688.00;;;11.03;100.00
45403;BME280;47427;51.976;5.326;2023-03-19T18:15:29;101688.16;;;11.06;100.00
45403;BME280;47427;51.976;5.326;2023-03-19T18:18:57;101693.81;;;11.17;100.00
45403;BME280;47427;51.976;5.326;2023-03-19T18:22:20;101697.50;;;11.22;100.00
45403;BME280;47427;51.976;5.326;2023-03-19T18:25:45;101695.13;;;11.06;100.00
45403;BME280;47427;51.976;5.326;2023-03-19T18:29:26;101696.06;;;11.08;100.00
45403;BME280;47427;51.976;5.326;2023-03-19T18:32:54;101708.09;;;11.01;100.00
45403;BME280;47427;51.976;5.326;2023-03-19T18:36:24;101708.31;;;10.85;100.00
45403;BME280;47427;51.976;5.326;2023-03-19T18:39:48;101724.66;;;10.78;100.00
45403;BME280;47427;51.976;5.326;2023-03-19T18:43:12;101722.59;;;10.69;100.00
45403;BME280;47427;51.976;5.326;2023-03-19T18:46:36;101737.91;;;10.81;100.00
45403;BME280;47427;51.976;5.326;2023-03-19T18:50:00;101736.69;;;10.71;100.00
45403;BME280;47427;51.976;5.326;2023-03-19T18:53:22;101730.03;;;10.58;100.00
45403;BME280;47427;51.976;5.326;2023-03-19T18:56:46;101749.03;;;10.53;100.00
45403;BME280;47427;51.976;5.326;2023-03-19T19:00:20;101748.22;;;10.54;100.00
45403;BME280;47427;51.976;5.326;2023-03-19T19:03:45;101760.81;;;10.62;100.00
45403;BME280;47427;51.976;5.326;2023-03-19T19:07:13;101768.75;;;10.64;100.00
45403;BME280;47427;51.976;5.326;2023-03-19T19:10:36;101763.53;;;10.66;100.00
45403;BME280;47427;51.976;5.326;2023-03-19T19:14:00;101759.84;;;10.60;100.00
45403;BME280;47427;51.976;5.326;2023-03-19T19:17:24;101762.91;;;10.50;100.00
45403;BME280;47427;51.976;5.326;2023-03-19T19:20:51;101770.56;;;10.44;100.00
45403;BME280;47427;51.976;5.326;2023-03-19T19:24:13;101770.09;;;10.54;100.00
45403;BME280;47427;51.976;5.326;2023-03-19T19:27:35;101777.19;;;10.57;100.00
45403;BME280;47427;51.976;5.326;2023-03-19T19:30:59;101786.69;;;10.53;100.00
45403;BME280;47427;51.976;5.326;2023-03-19T19:34:22;101796.66;;;10.41;100.00